地図

経路データ

SID SEASON NUMBER BASIN SUBBASIN NAME ISO_TIME NATURE LAT LON WMO_WIND WMO_PRES WMO_AGENCY TRACK_TYPE DIST2LAND LANDFALL IFLAG USA_AGENCY USA_ATCF_ID USA_LAT USA_LON USA_RECORD USA_STATUS USA_WIND USA_PRES USA_SSHS USA_R34_NE USA_R34_SE USA_R34_SW USA_R34_NW USA_R50_NE USA_R50_SE USA_R50_SW USA_R50_NW USA_R64_NE USA_R64_SE USA_R64_SW USA_R64_NW USA_POCI USA_ROCI USA_RMW USA_EYE TOKYO_LAT TOKYO_LON TOKYO_GRADE TOKYO_WIND TOKYO_PRES TOKYO_R50_DIR TOKYO_R50_LONG TOKYO_R50_SHORT TOKYO_R30_DIR TOKYO_R30_LONG TOKYO_R30_SHORT TOKYO_LAND CMA_LAT CMA_LON CMA_CAT CMA_WIND CMA_PRES HKO_LAT HKO_LON HKO_CAT HKO_WIND HKO_PRES NEWDELHI_LAT NEWDELHI_LON NEWDELHI_GRADE NEWDELHI_WIND NEWDELHI_PRES NEWDELHI_CI NEWDELHI_DP NEWDELHI_POCI REUNION_LAT REUNION_LON REUNION_TYPE REUNION_WIND REUNION_PRES REUNION_TNUM REUNION_CI REUNION_RMW REUNION_R34_NE REUNION_R34_SE REUNION_R34_SW REUNION_R34_NW REUNION_R50_NE REUNION_R50_SE REUNION_R50_SW REUNION_R50_NW REUNION_R64_NE REUNION_R64_SE REUNION_R64_SW REUNION_R64_NW BOM_LAT BOM_LON BOM_TYPE BOM_WIND BOM_PRES BOM_TNUM BOM_CI BOM_RMW BOM_R34_NE BOM_R34_SE BOM_R34_SW BOM_R34_NW BOM_R50_NE BOM_R50_SE BOM_R50_SW BOM_R50_NW BOM_R64_NE BOM_R64_SE BOM_R64_SW BOM_R64_NW BOM_ROCI BOM_POCI BOM_EYE BOM_POS_METHOD BOM_PRES_METHOD NADI_LAT NADI_LON NADI_CAT NADI_WIND NADI_PRES WELLINGTON_LAT WELLINGTON_LON WELLINGTON_WIND WELLINGTON_PRES DS824_LAT DS824_LON DS824_STAGE DS824_WIND DS824_PRES TD9636_LAT TD9636_LON TD9636_STAGE TD9636_WIND TD9636_PRES TD9635_LAT TD9635_LON TD9635_WIND TD9635_PRES TD9635_ROCI NEUMANN_LAT NEUMANN_LON NEUMANN_CLASS NEUMANN_WIND NEUMANN_PRES MLC_LAT MLC_LON MLC_CLASS MLC_WIND MLC_PRES USA_GUST BOM_GUST BOM_GUST_PER REUNION_GUST REUNION_GUST_PER USA_SEAHGT USA_SEARAD_NE USA_SEARAD_SE USA_SEARAD_SW USA_SEARAD_NW STORM_SPEED STORM_DIR
1863042S15073 1863 7 SI MM NOT_NAMED 1863-02-11 06:00:00 NR -14.8000 72.8000 reunion main 1704 1664 _____O________ -1 -14.8000 72.8000 99 9.90000 9 264
1863042S15073 1863 7 SI MM NOT_NAMED 1863-02-11 09:00:00 NR -14.8500 72.3426 main 1655 1611 _____P________ -1 -14.8500 72.3426 99 9 264
1863042S15073 1863 7 SI MM NOT_NAMED 1863-02-11 12:00:00 NR -14.8994 71.8822 main 1611 1562 _____P________ -1 -14.8994 71.8822 99 9 264
1863042S15073 1863 7 SI MM NOT_NAMED 1863-02-11 15:00:00 NR -14.9485 71.4159 main 1562 1518 _____P________ -1 -14.9485 71.4159 99 9 264
1863042S15073 1863 7 SI MM NOT_NAMED 1863-02-11 18:00:00 NR -14.9977 70.9411 main 1508 1469 _____P________ -1 -14.9977 70.9411 99 9 264
1863042S15073 1863 7 SI MM NOT_NAMED 1863-02-11 21:00:00 NR -15.0472 70.4549 main 1469 1416 _____P________ -1 -15.0472 70.4549 99 10 264
1863042S15073 1863 7 SI MM NOT_NAMED 1863-02-12 00:00:00 NR -15.0973 69.9546 main 1416 1368 _____P________ -1 -15.0973 69.9546 99 10 264
1863042S15073 1863 7 SI MM NOT_NAMED 1863-02-12 03:00:00 NR -15.1482 69.4372 main 1359 1306 _____P________ -1 -15.1482 69.4372 99 10 264
1863042S15073 1863 7 SI MM NOT_NAMED 1863-02-12 06:00:00 NR -15.2000 68.9000 reunion main 1306 1253 _____O________ -1 -15.2000 68.9000 99 9.90000 11 264
1863042S15073 1863 7 SI MM NOT_NAMED 1863-02-12 09:00:00 NR -15.2538 68.3406 main 1244 1196 _____P________ -1 -15.2538 68.3406 99 11 264
1863042S15073 1863 7 SI MM NOT_NAMED 1863-02-12 12:00:00 NR -15.3139 67.7589 main 1196 1134 _____P________ -1 -15.3139 67.7589 99 12 263
1863042S15073 1863 7 SI MM NOT_NAMED 1863-02-12 15:00:00 NR -15.3856 67.1549 main 1134 1073 _____P________ -1 -15.3856 67.1549 99 12 262
1863042S15073 1863 7 SI MM NOT_NAMED 1863-02-12 18:00:00 NR -15.4741 66.5288 main 1064 1003 _____P________ -1 -15.4741 66.5288 99 12 261
1863042S15073 1863 7 SI MM NOT_NAMED 1863-02-12 21:00:00 NR -15.5845 65.8805 main 1003 933 _____P________ -1 -15.5845 65.8805 99 13 259
1863042S15073 1863 7 SI MM NOT_NAMED 1863-02-13 00:00:00 NR -15.7222 65.2099 main 933 867 _____P________ -1 -15.7222 65.2099 99 14 257
1863042S15073 1863 7 SI MM NOT_NAMED 1863-02-13 03:00:00 NR -15.8922 64.5165 main 858 784 _____P________ -1 -15.8922 64.5165 99 14 254
1863042S15073 1863 7 SI MM NOT_NAMED 1863-02-13 06:00:00 NR -16.1000 63.8000 reunion main 784 711 _____O________ -1 -16.1000 63.8000 99 9.90000 15 254
1863042S15073 1863 7 SI MM NOT_NAMED 1863-02-13 09:00:00 NR -16.3037 63.0340 main 702 630 _____P________ -1 -16.3037 63.0340 99 16 254
1863042S15073 1863 7 SI MM NOT_NAMED 1863-02-13 12:00:00 NR -16.5392 62.2370 main 622 544 _____P________ -1 -16.5392 62.2370 99 16 252
1863042S15073 1863 7 SI MM NOT_NAMED 1863-02-13 15:00:00 NR -16.8094 61.4198 main 537 453 _____P________ -1 -16.8094 61.4198 99 17 250
1863042S15073 1863 7 SI MM NOT_NAMED 1863-02-13 18:00:00 NR -17.1176 60.5929 main 453 374 _____P________ -1 -17.1176 60.5929 99 17 247
1863042S15073 1863 7 SI MM NOT_NAMED 1863-02-13 21:00:00 NR -17.4671 59.7670 main 365 291 _____P________ -1 -17.4671 59.7670 99 17 245
1863042S15073 1863 7 SI MM NOT_NAMED 1863-02-14 00:00:00 NR -17.8614 58.9526 main 281 208 _____P________ -1 -17.8614 58.9526 99 17 241
1863042S15073 1863 7 SI MM NOT_NAMED 1863-02-14 03:00:00 NR -18.3044 58.1601 main 208 145 _____P________ -1 -18.3044 58.1601 99 18 238
1863042S15073 1863 7 SI MM NOT_NAMED 1863-02-14 06:00:00 NR -18.8000 57.4000 reunion main 145 115 _____O________ -1 -18.8000 57.4000 99 9.90000 18 233
1863042S15073 1863 7 SI MM NOT_NAMED 1863-02-14 09:00:00 NR -19.3693 56.6504 main 114 114 _____P________ -1 -19.3693 56.6504 99 18 229
1863042S15073 1863 7 SI MM NOT_NAMED 1863-02-14 12:00:00 NR -19.9991 55.9207 main 113 44 _____P________ -1 -19.9991 55.9207 99 19 226
1863042S15073 1863 7 SI MM NOT_NAMED 1863-02-14 15:00:00 NR -20.6743 55.2163 main 35 30 _____P________ -1 -20.6743 55.2163 99 19 223
1863042S15073 1863 7 SI MM NOT_NAMED 1863-02-14 18:00:00 NR -21.3797 54.5432 main 79 79 _____P________ -1 -21.3797 54.5432 99 19 221
1863042S15073 1863 7 SI MM NOT_NAMED 1863-02-14 21:00:00 NR -22.1001 53.9078 main 170 170 _____P________ -1 -22.1001 53.9078 99 18 218
1863042S15073 1863 7 SI MM NOT_NAMED 1863-02-15 00:00:00 NR -22.8202 53.3172 main 265 265 _____P________ -1 -22.8202 53.3172 99 18 216
1863042S15073 1863 7 SI MM NOT_NAMED 1863-02-15 03:00:00 NR -23.5252 52.7787 main 355 355 _____P________ -1 -23.5252 52.7787 99 17 214
1863042S15073 1863 7 SI MM NOT_NAMED 1863-02-15 06:00:00 NR -24.2000 52.3000 reunion main 446 446 _____O________ -1 -24.2000 52.3000 99 9.90000 15 213
1863042S15073 1863 7 SI MM NOT_NAMED 1863-02-15 09:00:00 NR -24.8208 51.8664 main 453 433 _____P________ -1 -24.8208 51.8664 99 14 211
1863042S15073 1863 7 SI MM NOT_NAMED 1863-02-15 12:00:00 NR -25.4241 51.4947 main 433 422 _____P________ -1 -25.4241 51.4947 99 13 208
1863042S15073 1863 7 SI MM NOT_NAMED 1863-02-15 15:00:00 NR -26.0071 51.1785 main 426 415 _____P________ -1 -26.0071 51.1785 99 13 205
1863042S15073 1863 7 SI MM NOT_NAMED 1863-02-15 18:00:00 NR -26.5665 50.9113 main 420 415 _____P________ -1 -26.5665 50.9113 99 12 202
1863042S15073 1863 7 SI MM NOT_NAMED 1863-02-15 21:00:00 NR -27.0990 50.6865 main 429 426 _____P________ -1 -27.0990 50.6865 99 11 200
1863042S15073 1863 7 SI MM NOT_NAMED 1863-02-16 00:00:00 NR -27.6012 50.4976 main 446 445 _____P________ -1 -27.6012 50.4976 99 10 198
1863042S15073 1863 7 SI MM NOT_NAMED 1863-02-16 03:00:00 NR -28.0694 50.3377 main 468 468 _____P________ -1 -28.0694 50.3377 99 9 196
1863042S15073 1863 7 SI MM NOT_NAMED 1863-02-16 06:00:00 NR -28.5000 50.2000 reunion main 494 494 _____O________ -1 -28.5000 50.2000 99 9.90000 9 198
1863042S15073 1863 7 SI MM NOT_NAMED 1863-02-16 09:00:00 NR -28.8950 50.0348 main 517 517 _____P________ -1 -28.8950 50.0348 99 8 199
1863042S15073 1863 7 SI MM NOT_NAMED 1863-02-16 12:00:00 NR -29.2511 49.8990 main 549 549 _____P________ -1 -29.2511 49.8990 99 7 197
1863042S15073 1863 7 SI MM NOT_NAMED 1863-02-16 15:00:00 NR -29.5743 49.7891 main 573 573 _____P________ -1 -29.5743 49.7891 99 6 196
1863042S15073 1863 7 SI MM NOT_NAMED 1863-02-16 18:00:00 NR -29.8705 49.7016 main 597 597 _____P________ -1 -29.8705 49.7016 99 6 193
1863042S15073 1863 7 SI MM NOT_NAMED 1863-02-16 21:00:00 NR -30.1453 49.6327 main 612 612 _____P________ -1 -30.1453 49.6327 99 5 191
1863042S15073 1863 7 SI MM NOT_NAMED 1863-02-17 00:00:00 NR -30.4047 49.5788 main 642 642 _____P________ -1 -30.4047 49.5788 99 5 189
1863042S15073 1863 7 SI MM NOT_NAMED 1863-02-17 03:00:00 NR -30.6544 49.5358 main 668 668 _____P________ -1 -30.6544 49.5358 99 5 188
1863042S15073 1863 7 SI MM NOT_NAMED 1863-02-17 06:00:00 NR -30.9000 49.5000 reunion main 689 689 _____O________ -1 -30.9000 49.5000 99 9.90000 5 189
1863042S15073 1863 7 SI MM NOT_NAMED 1863-02-17 09:00:00 NR -31.1742 49.4437 main 716 716 _____P________ -1 -31.1742 49.4437 99 5 189
1863042S15073 1863 7 SI MM NOT_NAMED 1863-02-17 12:00:00 NR -31.4407 49.3971 main 737 737 _____P________ -1 -31.4407 49.3971 99 5 188
1863042S15073 1863 7 SI MM NOT_NAMED 1863-02-17 15:00:00 NR -31.6999 49.3600 main 768 768 _____P________ -1 -31.6999 49.3600 99 5 186
1863042S15073 1863 7 SI MM NOT_NAMED 1863-02-17 18:00:00 NR -31.9522 49.3318 main 797 797 _____P________ -1 -31.9522 49.3318 99 5 183
1863042S15073 1863 7 SI MM NOT_NAMED 1863-02-17 21:00:00 NR -32.1980 49.3122 main 818 818 _____P________ -1 -32.1980 49.3122 99 5 183
1863042S15073 1863 7 SI MM NOT_NAMED 1863-02-18 00:00:00 NR -32.4377 49.3007 main 839 839 _____P________ -1 -32.4377 49.3007 99 5 0
1863042S15073 1863 7 SI MM NOT_NAMED 1863-02-18 03:00:00 NR -32.6715 49.2967 main 871 871 _____P________ -1 -32.6715 49.2967 99 5 183
1863042S15073 1863 7 SI MM NOT_NAMED 1863-02-18 06:00:00 NR -32.9000 49.3000 reunion main 893 893 _____O________ -1 -32.9000 49.3000 99 9.90000 5 0
1863042S15073 1863 7 SI MM NOT_NAMED 1863-02-18 09:00:00 NR -33.1235 49.3099 main 914 914 _____P________ -1 -33.1235 49.3099 99 4 0
1863042S15073 1863 7 SI MM NOT_NAMED 1863-02-18 12:00:00 NR -33.3426 49.3258 main 934 934 _____P________ -1 -33.3426 49.3258 99 4 174
1863042S15073 1863 7 SI MM NOT_NAMED 1863-02-18 15:00:00 NR -33.5579 49.3467 main 965 965 _____P________ -1 -33.5579 49.3467 99 4 174
1863042S15073 1863 7 SI MM NOT_NAMED 1863-02-18 18:00:00 NR -33.7701 49.3720 main 989 989 _____P________ -1 -33.7701 49.3720 99 4 174
1863042S15073 1863 7 SI MM NOT_NAMED 1863-02-18 21:00:00 NR -33.9798 49.4008 main 1009 1009 _____P________ -1 -33.9798 49.4008 99 4 173
1863042S15073 1863 7 SI MM NOT_NAMED 1863-02-19 00:00:00 NR -34.1876 49.4323 main 1030 1030 _____P________ -1 -34.1876 49.4323 99 4 172
1863042S15073 1863 7 SI MM NOT_NAMED 1863-02-19 03:00:00 NR -34.3941 49.4657 main 1054 1054 _____P________ -1 -34.3941 49.4657 99 4 172
1863042S15073 1863 7 SI MM NOT_NAMED 1863-02-19 06:00:00 NR -34.6000 49.5000 reunion main 1075 _____O________ -1 -34.6000 49.5000 99 9.90000 4 170

IBTrACS Databaseについて

本データベースは、米国NOAAが公開する1842年以降の世界の熱帯低気圧のベストトラックデータアーカイブInternational Best Track Archive for Climate Stewardship (IBTrACS)を、ウェブで閲覧しやすい形式に変換したものです。

最終更新日:2021-11-26